createdAt,value
2018-09-08T00:07:28.310Z,55.9
2018-09-08T00:17:41.900Z,56.6
2018-09-08T00:28:05.859Z,56.8
2018-09-08T00:38:19.625Z,56.8
2018-09-08T00:49:04.650Z,56.5
2018-09-08T01:09:56.105Z,56.7
2018-09-08T01:20:44.617Z,57.4
2018-09-08T01:30:58.842Z,57.3
2018-09-08T01:41:12.839Z,57.3
2018-09-08T01:51:27.171Z,57.2
2018-09-08T02:02:12.240Z,57.6
2018-09-08T02:12:28.556Z,56.9
2018-09-08T02:22:42.022Z,57.4
2018-09-08T02:32:55.427Z,57.2
2018-09-08T02:43:41.100Z,57.6
2018-09-08T02:54:26.907Z,57.6
2018-09-08T03:04:41.113Z,57.9
2018-09-08T03:14:55.164Z,59.4
2018-09-08T03:25:06.459Z,60.7
2018-09-08T03:35:20.033Z,59.7
2018-09-08T03:45:34.304Z,60.2
2018-09-08T03:55:48.194Z,60.9
2018-09-08T04:06:02.514Z,60.6
2018-09-08T04:16:16.738Z,61.4
2018-09-08T04:26:30.718Z,60.9
2018-09-08T04:36:44.222Z,62.2
2018-09-08T04:46:58.385Z,61.8
2018-09-08T04:57:44.178Z,62.3
2018-09-08T05:07:55.357Z,61.8
2018-09-08T05:18:09.759Z,63.0
2018-09-08T05:28:24.581Z,63.6
2018-09-08T05:38:35.775Z,63.6
2018-09-08T05:48:50.331Z,62.7
2018-09-08T05:59:02.206Z,62.2
2018-09-08T06:09:16.377Z,63.2
2018-09-08T06:19:29.701Z,62.8
2018-09-08T06:29:41.160Z,63.8
2018-09-08T06:40:46.741Z,64.6
2018-09-08T06:51:23.163Z,64.4
2018-09-08T07:01:36.989Z,66.5
2018-09-08T07:12:22.229Z,65.6
2018-09-08T07:23:07.586Z,65.0
2018-09-08T07:33:52.626Z,64.3
2018-09-08T07:44:07.080Z,63.5
2018-09-08T07:54:21.530Z,61.2
2018-09-08T08:05:06.738Z,60.4
2018-09-08T08:15:20.059Z,59.1
2018-09-08T08:25:34.231Z,55.0
2018-09-08T08:36:25.205Z,51.5
2018-09-08T08:46:39.594Z,48.3
2018-09-08T08:56:54.345Z,46.1
2018-09-08T09:07:08.284Z,44.3
2018-09-08T09:17:53.027Z,43.5
2018-09-08T09:28:10.742Z,42.2
2018-09-08T09:38:25.224Z,42.0
2018-09-08T09:48:39.234Z,41.9
2018-09-08T10:00:16.237Z,42.0
2018-09-08T10:10:30.374Z,41.0
2018-09-08T10:20:44.278Z,40.7
2018-09-08T10:30:58.355Z,41.2
2018-09-08T10:41:12.889Z,41.6
2018-09-08T10:51:27.005Z,42.4
2018-09-08T11:01:40.847Z,42.0
2018-09-08T11:12:35.859Z,42.2
2018-09-08T11:22:49.990Z,41.7
2018-09-08T11:33:04.495Z,41.4
2018-09-08T11:43:18.592Z,41.0
2018-09-08T11:53:42.083Z,41.5
2018-09-08T12:03:54.233Z,43.0
2018-09-08T12:14:08.592Z,43.6
2018-09-08T12:24:23.185Z,42.6
2018-09-08T12:34:35.274Z,44.2
2018-09-08T12:44:51.728Z,44.0
2018-09-08T13:05:22.733Z,40.8
2018-09-08T13:16:09.799Z,41.1
2018-09-08T13:26:55.472Z,42.2
2018-09-08T13:37:08.806Z,41.8
2018-09-08T13:47:54.287Z,41.7
2018-09-08T13:58:15.443Z,41.9
2018-09-08T14:08:29.225Z,40.6
2018-09-08T14:18:43.445Z,40.1
2018-09-08T14:28:57.480Z,39.8
2018-09-08T14:39:22.617Z,39.9
2018-09-08T14:49:36.995Z,40.1
2018-09-08T14:59:56.009Z,40.3
2018-09-08T15:10:11.327Z,41.1
2018-09-08T15:20:32.777Z,41.5
2018-09-08T15:31:18.811Z,41.8
2018-09-08T15:41:33.186Z,42.2
2018-09-08T15:51:49.150Z,42.5
2018-09-08T16:02:02.784Z,42.9
2018-09-08T16:12:14.387Z,43.3
2018-09-08T16:22:59.598Z,44.0
2018-09-08T16:33:44.359Z,44.2
2018-09-08T16:43:57.849Z,44.4
2018-09-08T16:54:12.756Z,44.9
2018-09-08T17:04:26.760Z,45.5
2018-09-08T17:25:28.510Z,46.3
2018-09-08T17:35:42.366Z,47.1
2018-09-08T17:45:55.732Z,47.2
2018-09-08T17:56:10.391Z,47.3
2018-09-08T18:06:32.437Z,47.5
2018-09-08T18:18:00.736Z,47.9
2018-09-08T18:28:14.305Z,48.4
2018-09-08T18:38:29.774Z,48.7
2018-09-08T18:48:41.490Z,48.8
2018-09-08T18:58:55.738Z,49.0
2018-09-08T19:09:10.358Z,49.3
2018-09-08T19:20:04.739Z,49.6
2018-09-08T19:31:36.450Z,50.0
2018-09-08T19:41:50.532Z,50.1
2018-09-08T19:52:04.341Z,50.1
2018-09-08T20:02:49.076Z,50.3
2018-09-08T20:13:02.332Z,50.5
2018-09-08T20:23:16.431Z,50.6
2018-09-08T20:33:29.877Z,50.6
2018-09-08T20:43:45.422Z,50.8
2018-09-08T20:53:59.435Z,51.1
2018-09-08T21:04:13.354Z,51.0
2018-09-08T21:14:27.507Z,51.0
2018-09-08T21:24:40.694Z,51.2
2018-09-08T21:34:53.911Z,51.2
2018-09-08T21:46:00.290Z,51.1
2018-09-08T21:56:14.228Z,51.4
2018-09-08T22:06:28.639Z,51.2
2018-09-08T22:16:42.462Z,51.8
2018-09-08T22:26:56.712Z,51.4
2018-09-08T22:37:11.119Z,51.5
2018-09-08T22:47:24.957Z,51.7
2018-09-08T22:57:39.270Z,52.5
2018-09-08T23:07:53.166Z,52.1
2018-09-08T23:18:38.248Z,52.3
2018-09-08T23:28:52.475Z,52.2
2018-09-08T23:39:06.767Z,52.3
2018-09-08T23:49:20.825Z,52.4
2018-09-08T23:59:34.863Z,52.5
